createdAt,value
2024-02-26T00:01:35.340Z,83.93
2024-02-26T00:04:04.045Z,84.00
2024-02-26T00:06:32.601Z,84.22
2024-02-26T00:09:00.555Z,84.29
2024-02-26T00:11:28.412Z,84.57
2024-02-26T00:13:57.262Z,84.16
2024-02-26T00:16:25.321Z,84.41
2024-02-26T00:18:53.201Z,85.35
2024-02-26T00:21:21.269Z,85.23
2024-02-26T00:23:50.606Z,85.65
2024-02-26T00:26:18.660Z,85.67
2024-02-26T00:28:46.545Z,86.09
2024-02-26T00:31:14.198Z,86.77
2024-02-26T00:33:42.120Z,86.39
2024-02-26T00:36:10.253Z,86.47
2024-02-26T00:38:38.292Z,86.28
2024-02-26T00:41:05.976Z,86.75
2024-02-26T00:43:33.756Z,86.04
2024-02-26T00:46:01.839Z,86.17
2024-02-26T00:48:29.821Z,86.92
2024-02-26T00:50:57.783Z,86.27
2024-02-26T00:53:26.306Z,86.03
2024-02-26T00:55:54.020Z,85.83
2024-02-26T00:58:21.681Z,86.78
2024-02-26T01:00:49.351Z,87.60
2024-02-26T01:03:16.875Z,87.13
2024-02-26T01:05:44.628Z,87.24
2024-02-26T01:08:12.349Z,87.19
2024-02-26T01:10:40.082Z,87.45
2024-02-26T01:13:09.047Z,87.45
2024-02-26T01:15:36.702Z,86.72
2024-02-26T01:18:04.408Z,86.35
2024-02-26T01:20:32.113Z,86.95
2024-02-26T01:22:59.645Z,87.52
2024-02-26T01:25:27.294Z,87.15
2024-02-26T01:27:54.936Z,87.16
2024-02-26T01:30:22.719Z,86.92
2024-02-26T01:32:50.324Z,87.12
2024-02-26T01:35:18.267Z,86.83
2024-02-26T01:37:45.835Z,85.61
2024-02-26T01:40:14.205Z,85.97
2024-02-26T01:42:42.985Z,86.59
2024-02-26T01:45:17.345Z,86.73
2024-02-26T01:47:47.230Z,87.05
2024-02-26T01:50:15.744Z,87.26
2024-02-26T01:52:43.811Z,86.92
2024-02-26T01:55:11.822Z,86.15
2024-02-26T01:57:39.646Z,85.91
2024-02-26T02:00:09.635Z,85.63
2024-02-26T02:02:37.787Z,85.66
2024-02-26T02:05:06.540Z,86.10
2024-02-26T02:07:34.542Z,86.62
2024-02-26T02:10:02.167Z,85.73
2024-02-26T02:12:29.840Z,86.00
2024-02-26T02:14:57.559Z,86.00
2024-02-26T02:17:25.535Z,86.90
2024-02-26T02:19:53.491Z,86.17
2024-02-26T02:22:21.107Z,84.81
2024-02-26T02:24:48.633Z,84.73
2024-02-26T02:27:16.132Z,85.75
2024-02-26T02:29:43.705Z,86.48
2024-02-26T02:32:11.354Z,86.55
2024-02-26T02:34:39.140Z,86.42
2024-02-26T02:37:06.976Z,85.87
2024-02-26T02:39:35.017Z,85.51
2024-02-26T02:42:02.633Z,84.92
2024-02-26T02:44:30.270Z,84.13
2024-02-26T02:46:58.306Z,83.59
2024-02-26T02:49:26.210Z,83.69
2024-02-26T02:51:55.569Z,83.41
2024-02-26T02:54:23.244Z,83.26
2024-02-26T02:56:51.075Z,82.67
2024-02-26T02:59:18.821Z,82.75
2024-02-26T03:01:46.689Z,82.39
2024-02-26T03:04:14.484Z,83.37
2024-02-26T03:06:42.165Z,84.61
2024-02-26T03:09:09.947Z,84.30
2024-02-26T03:11:37.833Z,84.36
2024-02-26T03:14:06.368Z,84.73
2024-02-26T03:16:34.115Z,84.82
2024-02-26T03:19:01.796Z,84.44
2024-02-26T03:21:29.578Z,84.93
2024-02-26T03:23:58.774Z,85.64
2024-02-26T03:26:26.582Z,85.17
2024-02-26T03:28:54.285Z,85.54
2024-02-26T03:31:22.986Z,85.29
2024-02-26T03:33:50.719Z,84.84
2024-02-26T03:36:18.577Z,84.26
2024-02-26T03:38:46.361Z,84.16
2024-02-26T03:41:14.228Z,84.59
2024-02-26T03:43:41.782Z,84.19
2024-02-26T03:46:10.594Z,83.40
2024-02-26T03:48:38.543Z,83.42
2024-02-26T03:51:06.528Z,83.71
2024-02-26T03:53:34.183Z,84.41
2024-02-26T03:56:05.625Z,84.48
2024-02-26T03:58:33.856Z,84.02
2024-02-26T04:01:02.050Z,84.49
2024-02-26T04:03:30.019Z,84.76
2024-02-26T04:05:57.792Z,84.66
2024-02-26T04:08:25.466Z,84.68
2024-02-26T04:10:53.477Z,84.63
2024-02-26T04:13:21.323Z,84.66
2024-02-26T04:15:49.042Z,84.62
2024-02-26T04:18:17.055Z,84.93
2024-02-26T04:20:44.875Z,85.00
2024-02-26T04:23:12.593Z,84.23
2024-02-26T04:25:40.415Z,84.99
2024-02-26T04:28:08.292Z,85.80
2024-02-26T04:30:36.128Z,86.08
2024-02-26T04:33:04.202Z,85.95
2024-02-26T04:35:32.238Z,85.13
2024-02-26T04:38:00.688Z,84.86
2024-02-26T04:40:28.861Z,83.62
2024-02-26T04:42:57.006Z,83.90
2024-02-26T04:45:24.740Z,83.89
2024-02-26T04:47:52.683Z,84.64
2024-02-26T04:50:20.423Z,85.94
2024-02-26T04:52:48.198Z,87.67
2024-02-26T04:55:15.968Z,89.15
2024-02-26T04:57:44.158Z,89.34
2024-02-26T05:00:12.820Z,88.55
2024-02-26T05:02:41.078Z,87.65
2024-02-26T05:05:10.134Z,87.91
2024-02-26T05:07:42.620Z,87.61
2024-02-26T05:10:10.936Z,87.15
2024-02-26T05:12:38.778Z,87.50
2024-02-26T05:15:07.050Z,87.34
2024-02-26T05:17:35.153Z,86.54
2024-02-26T05:20:03.790Z,86.82
2024-02-26T05:22:31.447Z,85.91
2024-02-26T05:24:59.346Z,85.31
2024-02-26T05:27:27.017Z,85.87
2024-02-26T05:29:55.639Z,86.32
2024-02-26T05:32:23.393Z,87.01
2024-02-26T05:34:51.044Z,86.84
2024-02-26T05:37:18.603Z,86.93
2024-02-26T05:39:46.310Z,87.40
2024-02-26T05:42:14.101Z,86.48
2024-02-26T05:44:41.937Z,85.63
2024-02-26T05:47:09.465Z,85.92
2024-02-26T05:49:37.336Z,84.84
2024-02-26T05:52:05.205Z,85.16
2024-02-26T05:54:33.449Z,84.80
2024-02-26T05:57:01.341Z,84.70
2024-02-26T05:59:29.487Z,84.82
2024-02-26T06:01:57.540Z,85.51
2024-02-26T06:04:26.292Z,85.88
2024-02-26T06:06:54.586Z,85.85
2024-02-26T06:09:22.720Z,84.60
2024-02-26T06:11:51.456Z,84.86
2024-02-26T06:14:21.127Z,85.81
2024-02-26T06:16:50.090Z,85.78
2024-02-26T06:19:18.649Z,86.04
2024-02-26T06:21:46.582Z,85.64
2024-02-26T06:24:15.805Z,84.53
2024-02-26T06:26:44.500Z,82.91
2024-02-26T06:29:12.129Z,82.11
2024-02-26T06:31:40.015Z,81.52
2024-02-26T06:34:07.657Z,80.76
2024-02-26T06:36:36.109Z,80.75
2024-02-26T06:39:04.215Z,79.50
2024-02-26T06:41:33.106Z,79.00
2024-02-26T06:44:02.713Z,79.95
2024-02-26T06:46:33.383Z,78.88
2024-02-26T06:49:07.059Z,74.86
2024-02-26T06:51:35.917Z,73.85
2024-02-26T06:54:04.063Z,73.89
2024-02-26T06:56:33.023Z,74.96
2024-02-26T06:59:02.182Z,74.24
2024-02-26T07:01:33.390Z,73.59
2024-02-26T07:04:08.338Z,75.42
2024-02-26T07:06:53.723Z,77.20
2024-02-26T07:14:04.501Z,76.67
2024-02-26T07:16:50.329Z,76.47
2024-02-26T07:19:28.992Z,74.87
2024-02-26T07:22:10.184Z,75.28
2024-02-26T07:24:42.358Z,73.82
2024-02-26T07:27:17.743Z,73.85
2024-02-26T07:29:52.653Z,72.54
2024-02-26T07:32:27.402Z,73.33
2024-02-26T07:35:06.649Z,72.85
2024-02-26T07:37:41.328Z,71.40
2024-02-26T07:40:16.144Z,71.46
2024-02-26T07:42:49.763Z,71.55
2024-02-26T07:45:21.471Z,69.34
2024-02-26T07:47:50.018Z,68.43
2024-02-26T07:50:22.622Z,67.77
2024-02-26T07:53:30.291Z,68.92
2024-02-26T07:56:01.314Z,68.18
2024-02-26T07:58:29.950Z,67.65
2024-02-26T08:00:57.965Z,66.74
2024-02-26T08:03:29.112Z,64.94
2024-02-26T08:06:13.567Z,66.05
2024-02-26T08:11:47.676Z,65.48
2024-02-26T08:17:52.961Z,64.88
2024-02-26T08:20:27.613Z,62.05
2024-02-26T08:22:56.518Z,63.74
2024-02-26T08:25:27.337Z,62.85
2024-02-26T08:28:12.517Z,62.28
2024-02-26T08:30:48.653Z,60.79
2024-02-26T08:33:17.900Z,65.46
2024-02-26T08:35:48.438Z,67.20
2024-02-26T08:38:22.506Z,68.36
2024-02-26T08:40:56.605Z,68.65
2024-02-26T08:43:29.641Z,68.73
2024-02-26T08:46:02.356Z,68.67
2024-02-26T08:48:32.501Z,68.57
2024-02-26T08:51:00.757Z,68.67
2024-02-26T08:53:37.784Z,68.25
2024-02-26T08:56:10.167Z,67.39
2024-02-26T08:58:38.623Z,66.51
2024-02-26T09:01:09.767Z,66.01
2024-02-26T09:03:43.228Z,65.83
2024-02-26T09:06:15.769Z,65.21
2024-02-26T09:08:44.665Z,64.68
2024-02-26T09:11:13.022Z,64.06
2024-02-26T09:13:42.563Z,64.53
2024-02-26T09:16:11.463Z,63.77
2024-02-26T09:18:41.525Z,62.46
2024-02-26T09:21:11.323Z,62.02
2024-02-26T09:23:39.103Z,60.66
2024-02-26T09:26:08.195Z,58.15
2024-02-26T09:28:38.865Z,58.61
2024-02-26T09:31:15.289Z,57.95
2024-02-26T09:33:47.848Z,56.93
2024-02-26T09:36:16.706Z,56.46
2024-02-26T09:38:52.543Z,56.83
2024-02-26T09:41:32.053Z,56.60
2024-02-26T09:44:02.481Z,56.58
2024-02-26T09:46:31.852Z,55.78
2024-02-26T09:49:00.202Z,55.82
2024-02-26T09:51:32.550Z,55.18
2024-02-26T09:54:04.104Z,55.08
2024-02-26T09:56:33.947Z,55.17
2024-02-26T09:59:01.693Z,54.85
2024-02-26T10:01:37.520Z,54.51
2024-02-26T10:04:05.613Z,54.61
2024-02-26T10:06:34.838Z,55.22
2024-02-26T10:09:09.269Z,54.95
2024-02-26T10:11:46.241Z,54.29
2024-02-26T10:14:22.285Z,52.98
2024-02-26T10:16:55.415Z,52.65
2024-02-26T10:19:28.511Z,52.93
2024-02-26T10:22:01.803Z,52.75
2024-02-26T10:24:30.514Z,53.39
2024-02-26T10:26:58.371Z,52.46
2024-02-26T10:29:33.651Z,51.39
2024-02-26T10:32:06.103Z,51.84
2024-02-26T10:34:44.500Z,51.30
2024-02-26T10:37:13.236Z,50.52
2024-02-26T10:39:48.271Z,50.45
2024-02-26T10:42:21.279Z,50.33
2024-02-26T10:44:50.257Z,50.14
2024-02-26T10:47:18.154Z,50.26
2024-02-26T10:49:51.453Z,50.06
2024-02-26T10:52:21.759Z,50.22
2024-02-26T10:54:51.803Z,49.71
2024-02-26T10:57:21.774Z,49.99
2024-02-26T10:59:50.475Z,50.17
2024-02-26T11:02:19.918Z,49.73
2024-02-26T11:04:48.271Z,49.61
2024-02-26T11:07:22.189Z,47.83
2024-02-26T11:10:00.348Z,47.72
2024-02-26T11:12:46.765Z,46.67
2024-02-26T11:15:24.275Z,47.11
2024-02-26T11:18:13.529Z,47.47
2024-02-26T11:20:43.559Z,46.86
2024-02-26T11:23:12.983Z,46.41
2024-02-26T11:25:49.775Z,46.63
2024-02-26T11:28:21.013Z,46.79
2024-02-26T11:30:49.909Z,47.05
2024-02-26T11:33:17.696Z,46.95
2024-02-26T11:35:46.284Z,46.98
2024-02-26T11:38:27.632Z,46.45
2024-02-26T11:40:56.270Z,44.91
2024-02-26T11:44:06.679Z,44.58
2024-02-26T11:46:45.712Z,45.57
2024-02-26T11:49:28.622Z,45.08
2024-02-26T11:51:57.623Z,45.65
2024-02-26T11:54:42.389Z,46.34
2024-02-26T11:57:36.306Z,46.08
2024-02-26T12:00:27.965Z,46.25
2024-02-26T12:03:09.874Z,46.09
2024-02-26T12:05:38.593Z,45.32
2024-02-26T12:08:10.371Z,45.47
2024-02-26T12:10:41.301Z,45.10
2024-02-26T12:13:20.342Z,45.07
2024-02-26T12:15:59.679Z,45.37
2024-02-26T12:18:27.711Z,44.69
2024-02-26T12:21:04.591Z,44.49
2024-02-26T12:23:34.077Z,44.75
2024-02-26T12:26:05.852Z,44.86
2024-02-26T12:28:39.783Z,45.34
2024-02-26T12:31:11.463Z,45.49
2024-02-26T12:33:40.014Z,45.35
2024-02-26T12:36:18.885Z,45.24
2024-02-26T12:38:46.816Z,45.95
2024-02-26T12:41:15.190Z,44.88
2024-02-26T12:43:43.281Z,44.60
2024-02-26T12:46:12.374Z,45.36
2024-02-26T12:48:41.581Z,45.08
2024-02-26T12:51:11.978Z,45.39
2024-02-26T12:53:40.398Z,45.80
2024-02-26T12:56:11.293Z,45.58
2024-02-26T12:58:40.672Z,45.32
2024-02-26T13:01:08.929Z,46.01
2024-02-26T13:03:37.174Z,46.06
2024-02-26T13:06:08.683Z,46.60
2024-02-26T13:08:37.138Z,46.62
2024-02-26T13:11:06.073Z,45.57
2024-02-26T13:13:34.619Z,45.78
2024-02-26T13:16:08.547Z,45.99
2024-02-26T13:18:45.145Z,46.06
2024-02-26T13:21:17.052Z,45.86
2024-02-26T13:23:47.729Z,46.04
2024-02-26T13:26:16.104Z,46.04
2024-02-26T13:28:46.963Z,45.86
2024-02-26T13:31:14.930Z,45.23
2024-02-26T13:33:43.896Z,45.72
2024-02-26T13:36:16.455Z,45.12
2024-02-26T13:38:56.101Z,45.16
2024-02-26T13:41:24.937Z,44.23
2024-02-26T13:43:55.878Z,44.38
2024-02-26T13:46:23.651Z,44.85
2024-02-26T13:48:51.423Z,44.97
2024-02-26T13:51:19.180Z,44.85
2024-02-26T13:53:47.418Z,44.69
2024-02-26T13:56:15.328Z,44.94
2024-02-26T13:58:42.964Z,44.68
2024-02-26T14:01:10.698Z,44.51
2024-02-26T14:03:38.616Z,44.27
2024-02-26T14:06:06.925Z,44.18
2024-02-26T14:08:34.974Z,44.32
2024-02-26T14:11:03.164Z,44.08
2024-02-26T14:13:30.708Z,44.33
2024-02-26T14:15:58.691Z,44.68
2024-02-26T14:18:26.506Z,44.87
2024-02-26T14:20:54.313Z,45.40
2024-02-26T14:23:22.056Z,44.61
2024-02-26T14:25:50.196Z,44.36
2024-02-26T14:28:22.086Z,44.38
2024-02-26T14:30:54.224Z,44.61
2024-02-26T14:33:21.929Z,44.20
2024-02-26T14:35:49.866Z,43.85
2024-02-26T14:38:18.591Z,44.32
2024-02-26T14:40:47.256Z,44.31
2024-02-26T14:43:17.458Z,43.66
2024-02-26T14:45:48.610Z,43.41
2024-02-26T14:48:16.424Z,43.91
2024-02-26T14:50:44.172Z,43.96
2024-02-26T14:53:12.271Z,43.92
2024-02-26T14:55:41.975Z,44.16
2024-02-26T14:58:12.415Z,44.32
2024-02-26T15:00:40.420Z,44.69
2024-02-26T15:03:09.783Z,45.26
2024-02-26T15:05:37.667Z,45.14
2024-02-26T15:08:05.960Z,44.94
2024-02-26T15:10:33.941Z,45.48
2024-02-26T15:13:01.490Z,45.26
2024-02-26T15:15:29.365Z,45.56
2024-02-26T15:17:57.529Z,45.67
2024-02-26T15:20:25.693Z,45.42
2024-02-26T15:22:53.395Z,45.51
2024-02-26T15:25:20.940Z,45.72
2024-02-26T15:27:48.504Z,46.00
2024-02-26T15:30:17.604Z,46.10
2024-02-26T15:32:46.007Z,46.26
2024-02-26T15:35:13.694Z,46.47
2024-02-26T15:37:41.594Z,46.61
2024-02-26T15:40:10.183Z,46.62
2024-02-26T15:42:37.964Z,46.53
2024-02-26T15:45:06.326Z,46.31
2024-02-26T15:47:34.081Z,46.69
2024-02-26T15:50:03.289Z,46.52
2024-02-26T15:52:31.356Z,46.78
2024-02-26T15:54:59.146Z,46.82
2024-02-26T15:57:27.152Z,47.03
2024-02-26T15:59:55.396Z,47.16
2024-02-26T16:02:23.205Z,47.85
2024-02-26T16:04:50.710Z,48.14
2024-02-26T16:07:25.630Z,48.08
2024-02-26T16:09:54.446Z,48.27
2024-02-26T16:12:44.275Z,48.85
2024-02-26T16:15:12.339Z,48.92
2024-02-26T16:17:48.468Z,48.94
2024-02-26T16:20:17.330Z,49.27
2024-02-26T16:22:45.105Z,49.62
2024-02-26T16:25:12.899Z,49.94
2024-02-26T16:27:42.040Z,50.14
2024-02-26T16:30:10.589Z,50.52
2024-02-26T16:32:42.128Z,50.53
2024-02-26T16:35:12.186Z,50.73
2024-02-26T16:37:40.066Z,50.92
2024-02-26T16:40:11.358Z,51.25
2024-02-26T16:42:39.420Z,51.57
2024-02-26T16:45:07.936Z,52.15
2024-02-26T16:47:37.521Z,52.46
2024-02-26T16:50:07.600Z,52.85
2024-02-26T16:52:37.095Z,53.33
2024-02-26T16:55:06.832Z,53.72
2024-02-26T16:57:34.816Z,53.71
2024-02-26T17:00:02.836Z,54.04
2024-02-26T17:02:30.676Z,54.20
2024-02-26T17:04:58.700Z,54.47
2024-02-26T17:07:26.733Z,54.45
2024-02-26T17:09:56.165Z,54.70
2024-02-26T17:12:23.930Z,55.22
2024-02-26T17:14:53.283Z,55.32
2024-02-26T17:17:21.213Z,55.37
2024-02-26T17:19:48.897Z,55.58
2024-02-26T17:22:16.614Z,55.63
2024-02-26T17:24:45.674Z,55.94
2024-02-26T17:27:13.795Z,55.97
2024-02-26T17:29:42.029Z,56.22
2024-02-26T17:32:11.392Z,56.38
2024-02-26T17:34:43.491Z,56.65
2024-02-26T17:37:11.380Z,56.82
2024-02-26T17:39:39.087Z,57.27
2024-02-26T17:42:07.013Z,57.67
2024-02-26T17:44:41.125Z,57.79
2024-02-26T17:47:08.916Z,57.88
2024-02-26T17:49:36.718Z,57.93
2024-02-26T17:52:05.969Z,58.08
2024-02-26T17:54:34.906Z,58.08
2024-02-26T17:57:02.756Z,58.33
2024-02-26T17:59:30.804Z,58.36
2024-02-26T18:01:58.661Z,58.30
2024-02-26T18:04:27.296Z,58.38
2024-02-26T18:06:55.245Z,58.43
2024-02-26T18:09:23.432Z,58.59
2024-02-26T18:11:54.638Z,59.12
2024-02-26T18:14:22.669Z,59.37
2024-02-26T18:16:50.824Z,59.70
2024-02-26T18:19:18.779Z,59.83
2024-02-26T18:21:46.566Z,59.94
2024-02-26T18:24:16.164Z,59.88
2024-02-26T18:26:45.045Z,60.32
2024-02-26T18:29:13.341Z,60.20
2024-02-26T18:31:41.808Z,59.79
2024-02-26T18:34:09.990Z,59.64
2024-02-26T18:36:37.777Z,59.01
2024-02-26T18:39:05.704Z,58.61
2024-02-26T18:41:34.435Z,58.58
2024-02-26T18:44:02.418Z,58.54
2024-02-26T18:46:30.249Z,58.81
2024-02-26T18:48:58.114Z,58.95
2024-02-26T18:51:26.328Z,59.57
2024-02-26T18:53:54.351Z,59.50
2024-02-26T18:56:24.410Z,59.82
2024-02-26T18:58:52.383Z,59.74
2024-02-26T19:01:21.380Z,60.15
2024-02-26T19:03:49.133Z,60.16
2024-02-26T19:06:16.908Z,60.38
2024-02-26T19:08:44.933Z,60.95
2024-02-26T19:11:12.777Z,61.04
2024-02-26T19:13:41.104Z,60.94
2024-02-26T19:16:08.694Z,61.08
2024-02-26T19:18:37.834Z,60.78
2024-02-26T19:21:06.029Z,60.18
2024-02-26T19:23:35.197Z,59.95
2024-02-26T19:26:03.053Z,59.59
2024-02-26T19:28:31.670Z,59.75
2024-02-26T19:30:59.452Z,59.38
2024-02-26T19:33:28.568Z,59.44
2024-02-26T19:35:56.774Z,59.33
2024-02-26T19:38:24.730Z,59.22
2024-02-26T19:40:52.237Z,59.38
2024-02-26T19:43:19.877Z,59.65
2024-02-26T19:45:47.693Z,59.46
2024-02-26T19:48:16.110Z,59.62
2024-02-26T19:50:45.987Z,59.57
2024-02-26T19:53:13.609Z,59.24
2024-02-26T19:55:41.299Z,59.24
2024-02-26T19:58:09.162Z,59.44
2024-02-26T20:00:37.148Z,59.80
2024-02-26T20:03:07.175Z,59.99
2024-02-26T20:05:35.092Z,60.42
2024-02-26T20:08:02.755Z,60.63
2024-02-26T20:10:30.416Z,60.18
2024-02-26T20:12:59.633Z,60.44
2024-02-26T20:15:27.385Z,60.34
2024-02-26T20:17:55.212Z,60.32
2024-02-26T20:20:27.703Z,60.08
2024-02-26T20:22:55.461Z,60.17
2024-02-26T20:25:23.197Z,60.06
2024-02-26T20:27:50.894Z,59.95
2024-02-26T20:30:18.839Z,60.24
2024-02-26T20:32:46.865Z,60.31
2024-02-26T20:35:15.007Z,60.40
2024-02-26T20:37:43.508Z,59.94
2024-02-26T20:40:12.388Z,60.24
2024-02-26T20:42:40.806Z,60.35
2024-02-26T20:45:09.255Z,60.07
2024-02-26T20:47:37.025Z,60.14
2024-02-26T20:50:06.700Z,60.16
2024-02-26T20:52:35.111Z,60.04
2024-02-26T20:55:02.703Z,59.99
2024-02-26T20:57:30.392Z,60.16
2024-02-26T20:59:59.868Z,60.49
2024-02-26T21:02:33.831Z,60.67
2024-02-26T21:05:04.313Z,60.34
2024-02-26T21:07:32.473Z,60.51
2024-02-26T21:10:00.208Z,60.37
2024-02-26T21:12:28.335Z,60.20
2024-02-26T21:14:56.075Z,60.37
2024-02-26T21:17:23.784Z,60.65
2024-02-26T21:19:53.045Z,60.30
2024-02-26T21:22:21.066Z,60.60
2024-02-26T21:24:48.936Z,60.88
2024-02-26T21:27:17.634Z,61.68
2024-02-26T21:29:45.639Z,61.25
2024-02-26T21:32:13.493Z,61.46
2024-02-26T21:34:42.288Z,61.19
2024-02-26T21:37:10.494Z,60.59
2024-02-26T21:39:38.868Z,60.60
2024-02-26T21:42:07.360Z,61.47
2024-02-26T21:44:34.895Z,61.81
2024-02-26T21:47:03.979Z,61.52
2024-02-26T21:49:31.857Z,61.48
2024-02-26T21:51:59.992Z,61.68
2024-02-26T21:54:28.370Z,61.44
2024-02-26T21:56:56.118Z,61.05
2024-02-26T21:59:24.152Z,61.18
2024-02-26T22:01:52.123Z,61.03
2024-02-26T22:04:19.970Z,60.83
2024-02-26T22:06:49.763Z,61.49
2024-02-26T22:09:18.042Z,61.31
2024-02-26T22:11:45.649Z,61.25
2024-02-26T22:14:13.180Z,61.36
2024-02-26T22:16:40.738Z,61.57
2024-02-26T22:19:08.453Z,61.37
2024-02-26T22:21:36.205Z,61.63
2024-02-26T22:24:04.222Z,61.83
2024-02-26T22:26:32.110Z,61.40
2024-02-26T22:28:59.893Z,61.67
2024-02-26T22:31:29.175Z,61.60
2024-02-26T22:33:57.653Z,62.18
2024-02-26T22:36:25.510Z,62.03
2024-02-26T22:38:53.374Z,62.05
2024-02-26T22:41:21.608Z,62.26
2024-02-26T22:43:49.314Z,62.24
2024-02-26T22:46:16.781Z,62.35
2024-02-26T22:48:44.690Z,62.71
2024-02-26T22:51:14.210Z,62.82
2024-02-26T22:53:41.922Z,63.30
2024-02-26T22:56:09.505Z,63.20
2024-02-26T22:58:37.041Z,63.32
2024-02-26T23:01:04.921Z,63.82
2024-02-26T23:03:32.571Z,63.90
2024-02-26T23:06:00.158Z,63.82
2024-02-26T23:08:27.774Z,63.96
2024-02-26T23:10:55.346Z,63.99
2024-02-26T23:13:22.881Z,64.31
2024-02-26T23:15:54.195Z,64.30
2024-02-26T23:18:22.906Z,64.28
2024-02-26T23:20:50.424Z,64.25
2024-02-26T23:23:17.856Z,64.10
2024-02-26T23:25:45.452Z,64.24
2024-02-26T23:28:13.485Z,64.73
2024-02-26T23:30:41.199Z,64.45
2024-02-26T23:33:09.163Z,64.63
2024-02-26T23:35:37.245Z,64.09
2024-02-26T23:38:04.889Z,64.82
2024-02-26T23:40:35.341Z,64.53
2024-02-26T23:43:03.156Z,65.26
2024-02-26T23:45:30.814Z,65.71
2024-02-26T23:47:58.736Z,65.78
2024-02-26T23:50:28.935Z,65.76
2024-02-26T23:52:56.609Z,65.80
2024-02-26T23:55:24.089Z,65.35
2024-02-26T23:57:51.487Z,65.98
